Time;durP1;ratioP1;P1;durP2;ratioP2;P2;SDS_P1;SDS_P2;PMS_P1;PMS_P2;Temp;Humidity;BMP_temperature;BMP_pressure;BME280_temperature;BME280_humidity;BME280_pressure;Samples;Min_cycle;Max_cycle;Signal;HPM_P1;HPM_P2
2022/04/09 00:01:22;;;;;;;4.40;1.60;;;22.50;49.70;;;;;;220448;1265;22641;-57
2022/04/09 00:06:26;;;;;;;3.60;1.60;;;22.70;49.60;;;;;;220519;1266;25469;-58
2022/04/09 00:11:29;;;;;;;6.20;1.50;;;23.10;49.30;;;;;;220777;1266;25364;-54
2022/04/09 00:16:34;;;;;;;5.70;1.80;;;23.30;48.30;;;;;;220651;1266;22560;-59
2022/04/09 00:21:48;;;;;;;3.60;1.80;;;23.50;48.00;;;;;;220929;1265;22599;-58
2022/04/09 00:26:54;;;;;;;5.30;2.00;;;23.60;47.80;;;;;;220819;1265;22528;-58
2022/04/09 00:31:58;;;;;;;2.70;1.60;;;23.70;47.50;;;;;;220531;1265;24212;-57
2022/04/09 00:37:02;;;;;;;4.10;1.60;;;23.70;47.40;;;;;;220922;1265;22684;-59
2022/04/09 00:42:13;;;;;;;3.70;1.80;;;23.80;47.30;;;;;;220727;1266;22551;-58
2022/04/09 00:47:17;;;;;;;5.40;1.80;;;23.90;47.10;;;;;;220571;1265;22550;-58
2022/04/09 00:52:21;;;;;;;4.50;2.10;;;23.90;47.00;;;;;;220650;1266;24489;-58
2022/04/09 00:57:25;;;;;;;5.40;2.00;;;24.00;47.10;;;;;;220553;1265;25503;-56
2022/04/09 01:02:29;;;;;;;3.70;1.90;;;24.00;47.20;;;;;;220793;1265;22712;-62
2022/04/09 01:07:34;;;;;;;4.70;2.30;;;24.00;46.90;;;;;;220467;1265;25443;-57
2022/04/09 01:12:38;;;;;;;3.40;1.70;;;24.00;47.50;;;;;;220381;1266;26508;-59
2022/04/09 01:17:43;;;;;;;5.70;1.90;;;24.00;47.70;;;;;;220727;1266;22549;-58
2022/04/09 01:22:47;;;;;;;4.60;1.70;;;23.90;47.40;;;;;;220687;1266;25363;-57
2022/04/09 01:27:52;;;;;;;4.20;1.60;;;23.70;47.50;;;;;;220607;1265;22573;-58
2022/04/09 01:32:57;;;;;;;3.80;1.80;;;23.60;47.80;;;;;;220962;1265;24365;-51
2022/04/09 01:38:02;;;;;;;4.50;1.70;;;23.50;47.90;;;;;;220828;1265;22554;-58
2022/04/09 01:43:05;;;;;;;4.00;2.10;;;23.40;48.10;;;;;;220555;1265;25514;-56
2022/04/09 01:48:10;;;;;;;4.90;2.00;;;23.30;48.00;;;;;;220916;1266;24449;-59
2022/04/09 01:53:14;;;;;;;4.20;1.90;;;23.30;48.30;;;;;;220768;1266;25870;-57
2022/04/09 01:58:20;;;;;;;3.00;1.60;;;23.30;48.40;;;;;;220681;1266;23134;-59
2022/04/09 02:03:26;;;;;;;3.10;1.60;;;23.30;48.50;;;;;;220279;1266;22725;-59
2022/04/09 02:08:30;;;;;;;5.20;1.90;;;23.20;48.60;;;;;;220592;1265;25400;-56
2022/04/09 02:13:33;;;;;;;4.90;2.10;;;23.20;48.70;;;;;;220640;1265;25351;-57
2022/04/09 02:18:37;;;;;;;3.70;1.70;;;23.10;48.70;;;;;;220738;1265;24432;-57
2022/04/09 02:23:42;;;;;;;3.30;1.60;;;23.00;48.80;;;;;;220688;1267;24220;-58
2022/04/09 02:28:49;;;;;;;3.50;1.90;;;23.00;48.80;;;;;;220619;1265;22548;-57
2022/04/09 02:33:57;;;;;;;4.70;2.00;;;23.00;48.90;;;;;;220983;1266;22545;-58
2022/04/09 02:39:02;;;;;;;3.00;1.60;;;22.90;49.20;;;;;;220908;1265;24410;-58
2022/04/09 02:44:07;;;;;;;3.80;1.80;;;22.90;49.10;;;;;;220513;1265;23010;-57
2022/04/09 02:49:11;;;;;;;4.00;1.80;;;22.80;49.10;;;;;;220710;1265;24213;-57
2022/04/09 02:54:16;;;;;;;4.10;1.50;;;22.80;49.10;;;;;;221034;1267;25241;-58
2022/04/09 02:59:27;;;;;;;2.70;1.60;;;22.80;49.20;;;;;;221028;1267;25349;-57
2022/04/09 03:04:31;;;;;;;3.60;1.60;;;22.70;49.20;;;;;;220787;1265;23932;-56
2022/04/09 03:09:35;;;;;;;4.00;1.70;;;22.70;49.60;;;;;;220643;1265;22558;-56
2022/04/09 03:14:39;;;;;;;4.10;1.60;;;22.60;49.40;;;;;;220372;1265;22816;-61
2022/04/09 03:19:43;;;;;;;4.50;1.70;;;22.60;49.50;;;;;;220294;1266;22778;-55
2022/04/09 03:24:47;;;;;;;3.20;1.60;;;22.60;49.80;;;;;;220769;1266;23286;-57
2022/04/09 03:29:52;;;;;;;5.20;1.80;;;22.50;49.50;;;;;;220525;1265;25411;-57
2022/04/09 03:34:57;;;;;;;5.20;1.60;;;22.50;49.50;;;;;;220962;1264;22550;-61
2022/04/09 03:40:04;;;;;;;4.40;1.50;;;22.60;50.40;;;;;;220835;1265;23937;-57
2022/04/09 03:45:09;;;;;;;3.80;1.60;;;23.00;49.40;;;;;;220764;1264;25566;-58
2022/04/09 03:50:13;;;;;;;2.80;1.40;;;23.30;48.60;;;;;;220912;1264;22563;-58
2022/04/09 03:55:17;;;;;;;3.50;1.70;;;23.50;47.80;;;;;;220804;1265;24288;-57
2022/04/09 04:00:21;;;;;;;2.60;1.50;;;23.60;47.60;;;;;;220858;1265;25229;-57
2022/04/09 04:05:25;;;;;;;5.50;1.80;;;23.80;47.40;;;;;;221001;1265;24418;-56
2022/04/09 04:10:30;;;;;;;5.70;1.80;;;23.80;47.10;;;;;;220810;1265;24239;-55
2022/04/09 04:15:42;;;;;;;4.20;1.50;;;23.70;47.30;;;;;;220855;1267;22828;-55
2022/04/09 04:20:47;;;;;;;4.10;2.20;;;23.80;47.40;;;;;;220590;1266;25453;-56
2022/04/09 04:25:51;;;;;;;8.50;1.90;;;23.80;47.60;;;;;;220572;1266;24421;-57
2022/04/09 04:30:58;;;;;;;12.40;3.80;;;23.80;48.00;;;;;;220809;1264;22817;-56
2022/04/09 04:36:05;;;;;;;4.50;1.40;;;23.70;47.70;;;;;;220529;1265;25383;-57
2022/04/09 04:41:13;;;;;;;6.00;1.80;;;23.60;47.80;;;;;;220641;1266;22696;-56
2022/04/09 04:46:19;;;;;;;7.00;1.60;;;23.60;48.50;;;;;;220618;1267;23232;-58
2022/04/09 04:51:23;;;;;;;9.30;1.90;;;23.50;47.90;;;;;;220720;1267;24036;-55
2022/04/09 04:56:28;;;;;;;6.40;2.30;;;23.50;48.60;;;;;;220913;1265;22754;-59
2022/04/09 05:01:37;;;;;;;8.50;2.10;;;23.50;48.50;;;;;;220590;1266;22598;-57
2022/04/09 05:06:43;;;;;;;11.70;2.20;;;23.40;48.60;;;;;;220915;1266;22519;-54
2022/04/09 05:11:47;;;;;;;8.70;1.80;;;23.40;48.70;;;;;;220915;1267;22693;-56
2022/04/09 05:16:57;;;;;;;12.70;1.80;;;23.40;48.80;;;;;;220648;1265;24276;-56
2022/04/09 05:22:02;;;;;;;7.70;1.70;;;23.40;48.90;;;;;;220693;1267;24226;-55
2022/04/09 05:27:07;;;;;;;8.30;2.10;;;23.40;48.90;;;;;;220523;1266;24007;-58
2022/04/09 05:32:11;;;;;;;8.60;1.90;;;23.50;49.20;;;;;;220600;1267;22544;-56
2022/04/09 05:37:16;;;;;;;14.60;2.20;;;23.60;48.60;;;;;;220493;1266;22723;-60
2022/04/09 05:42:22;;;;;;;10.10;2.00;;;23.70;48.60;;;;;;220875;1267;24380;-56
2022/04/09 05:47:27;;;;;;;7.30;1.90;;;23.80;48.50;;;;;;220581;1265;24436;-63
2022/04/09 05:52:37;;;;;;;5.90;1.80;;;23.90;48.40;;;;;;220644;1267;24482;-61
2022/04/09 05:57:42;;;;;;;13.50;2.20;;;23.80;48.50;;;;;;220670;1267;22548;-61
2022/04/09 06:02:47;;;;;;;8.30;2.00;;;23.80;48.50;;;;;;220405;1266;22716;-61
2022/04/09 06:08:07;;;;;;;12.00;2.10;;;23.70;48.40;;;;;;220148;1266;24007;-61
2022/04/09 06:13:13;;;;;;;15.20;2.40;;;23.60;48.60;;;;;;228091;1266;22391;-63
2022/04/09 06:18:17;;;;;;;9.60;1.70;;;23.50;48.80;;;;;;228072;1266;22385;-63
2022/04/09 06:23:21;;;;;;;8.60;2.50;;;23.50;48.90;;;;;;228034;1266;22410;-61
2022/04/09 06:28:25;;;;;;;5.70;1.90;;;23.40;48.80;;;;;;221485;1266;22561;-61
2022/04/09 06:33:33;;;;;;;7.70;1.90;;;23.30;48.80;;;;;;220087;1266;24133;-62
2022/04/09 06:38:40;;;;;;;9.30;2.10;;;23.30;49.00;;;;;;224909;1267;22842;-63
2022/04/09 06:43:52;;;;;;;6.20;1.90;;;23.20;49.00;;;;;;219393;1267;362662;-61
2022/04/09 06:49:03;;;;;;;10.90;2.40;;;23.10;49.00;;;;;;228159;1266;22576;-59
2022/04/09 06:54:07;;;;;;;5.70;1.70;;;23.10;49.00;;;;;;221104;1266;22589;-63
2022/04/09 06:59:11;;;;;;;7.20;2.20;;;23.10;48.80;;;;;;220703;1266;22532;-64
2022/04/09 07:04:19;;;;;;;8.50;1.90;;;23.00;48.80;;;;;;220806;1266;25541;-58
2022/04/09 07:09:35;;;;;;;8.10;1.60;;;22.90;48.80;;;;;;220269;1266;24308;-60
2022/04/09 07:14:39;;;;;;;7.80;1.90;;;22.80;49.00;;;;;;220689;1267;22630;-65
2022/04/09 07:19:43;;;;;;;7.60;1.80;;;22.80;48.90;;;;;;220161;1266;22678;-62
2022/04/09 07:24:47;;;;;;;7.10;2.00;;;22.80;49.00;;;;;;220359;1267;24249;-63
2022/04/09 07:29:53;;;;;;;10.30;1.80;;;22.70;49.20;;;;;;220611;1267;24256;-64
2022/04/09 07:35:03;;;;;;;4.70;1.90;;;22.80;51.50;;;;;;220725;1267;26540;-64
2022/04/09 07:40:10;;;;;;;8.10;2.10;;;22.70;51.80;;;;;;220757;1266;22546;-62
2022/04/09 07:45:23;;;;;;;10.60;2.80;;;22.70;51.70;;;;;;220736;1267;25231;-60
2022/04/09 07:50:28;;;;;;;9.10;2.10;;;22.70;52.50;;;;;;220180;1266;23897;-64
2022/04/09 07:55:36;;;;;;;5.40;1.80;;;22.60;52.60;;;;;;219905;1267;25299;-62
2022/04/09 08:00:40;;;;;;;11.20;1.90;;;22.60;52.50;;;;;;220675;1267;24217;-57
2022/04/09 08:05:44;;;;;;;15.10;2.80;;;22.60;51.90;;;;;;220494;1265;22545;-60
2022/04/09 08:10:51;;;;;;;6.50;2.20;;;22.60;51.50;;;;;;220590;1267;23165;-50
2022/04/09 08:15:56;;;;;;;8.70;2.30;;;22.50;51.50;;;;;;220503;1266;24291;-59
2022/04/09 08:21:16;;;;;;;11.80;2.50;;;22.50;51.40;;;;;;220509;1265;25385;-53
2022/04/09 08:26:27;;;;;;;7.20;2.40;;;22.50;51.80;;;;;;220352;1265;22547;-60
2022/04/09 08:31:35;;;;;;;9.80;2.20;;;22.50;51.50;;;;;;220346;1265;22675;-60
2022/04/09 08:36:42;;;;;;;14.50;2.80;;;22.50;51.70;;;;;;220534;1265;24364;-52
2022/04/09 08:42:00;;;;;;;15.50;2.30;;;22.50;51.30;;;;;;220813;1267;22577;-58
2022/04/09 08:47:12;;;;;;;14.80;2.50;;;22.50;51.10;;;;;;220410;1265;23452;-57
2022/04/09 08:52:33;;;;;;;11.40;2.30;;;22.50;51.20;;;;;;220610;1265;24312;-56
2022/04/09 08:57:37;;;;;;;14.90;3.30;;;22.50;50.80;;;;;;220835;1265;22550;-60
2022/04/09 09:02:50;;;;;;;14.10;3.00;;;22.40;50.40;;;;;;220818;1265;25356;-58
2022/04/09 09:08:00;;;;;;;11.50;2.70;;;22.40;49.90;;;;;;221941;1265;24382;-58
2022/04/09 09:13:11;;;;;;;6.30;2.20;;;22.50;49.80;;;;;;220430;1265;22544;-61
2022/04/09 09:18:26;;;;;;;16.00;2.50;;;22.50;49.20;;;;;;220667;1266;22614;-55
2022/04/09 09:23:34;;;;;;;7.40;2.40;;;22.50;49.00;;;;;;220406;1265;25249;-56
2022/04/09 09:28:38;;;;;;;5.10;2.00;;;22.40;48.80;;;;;;220654;1266;22546;-57
2022/04/09 09:33:49;;;;;;;7.80;3.10;;;22.40;48.40;;;;;;220613;1265;22622;-56
2022/04/09 09:39:17;;;;;;;5.60;1.90;;;22.40;48.30;;;;;;220579;1267;24397;-56
2022/04/09 09:44:25;;;;;;;5.20;1.70;;;22.40;48.40;;;;;;220958;1267;22634;-60
2022/04/09 09:49:36;;;;;;;5.10;1.60;;;22.50;47.50;;;;;;220838;1267;24265;-59
2022/04/09 09:54:56;;;;;;;4.20;1.40;;;22.90;46.70;;;;;;220458;1265;24374;-57
2022/04/09 10:00:10;;;;;;;4.90;1.80;;;23.10;46.10;;;;;;220637;1265;22774;-59
2022/04/09 10:05:14;;;;;;;4.80;1.40;;;23.20;45.50;;;;;;220881;1265;24201;-59
2022/04/09 10:10:19;;;;;;;5.60;1.60;;;23.40;45.20;;;;;;220542;1266;24364;-59
2022/04/09 10:15:26;;;;;;;6.20;1.70;;;23.50;44.80;;;;;;220714;1267;22702;-57
2022/04/09 10:20:31;;;;;;;6.10;1.90;;;23.60;44.50;;;;;;220968;1265;24416;-61
2022/04/09 10:25:36;;;;;;;3.50;1.60;;;23.70;44.30;;;;;;220795;1265;22691;-59
2022/04/09 10:30:43;;;;;;;3.60;1.70;;;23.80;44.00;;;;;;220575;1265;26406;-57
2022/04/09 10:35:55;;;;;;;3.30;1.40;;;23.70;43.80;;;;;;221029;1269;25621;-58
2022/04/09 10:41:01;;;;;;;3.20;1.30;;;23.70;43.80;;;;;;220390;1265;25341;-59
2022/04/09 10:46:17;;;;;;;;;;;23.70;43.40;;;;;;220772;1267;22516;-58
2022/04/09 10:52:11;;;;;;;3.10;1.50;;;23.70;43.50;;;;;;220621;1265;22687;-59
2022/04/09 10:57:22;;;;;;;3.00;1.50;;;23.60;43.60;;;;;;220483;1265;25243;-56
2022/04/09 11:02:33;;;;;;;3.40;1.60;;;23.50;43.50;;;;;;220498;1267;22524;-60
2022/04/09 11:08:08;;;;;;;3.10;1.40;;;23.50;43.40;;;;;;220522;1265;23196;-59
2022/04/09 11:13:12;;;;;;;4.80;1.70;;;23.50;43.30;;;;;;220417;1265;24419;-64
2022/04/09 11:18:17;;;;;;;7.00;1.90;;;23.60;43.10;;;;;;220678;1265;26586;-64
2022/04/09 11:23:25;;;;;;;5.80;1.50;;;23.60;42.90;;;;;;220318;1265;24250;-58
2022/04/09 11:28:38;;;;;;;5.20;1.60;;;23.70;43.00;;;;;;220671;1266;22545;-59
2022/04/09 11:33:56;;;;;;;5.80;1.70;;;23.60;43.30;;;;;;220383;1265;24067;-58
2022/04/09 11:39:00;;;;;;;5.80;1.30;;;23.50;43.80;;;;;;220821;1265;22541;-60
2022/04/09 11:44:04;;;;;;;5.00;1.80;;;23.50;43.50;;;;;;220742;1265;22572;-59
2022/04/09 11:49:08;;;;;;;6.30;1.40;;;23.40;43.60;;;;;;220601;1265;22650;-57
2022/04/09 11:54:25;;;;;;;6.50;1.30;;;23.40;43.70;;;;;;220479;1265;24268;-53
2022/04/09 11:59:35;;;;;;;4.10;1.50;;;23.40;43.60;;;;;;220878;1268;25339;-59
2022/04/09 12:04:38;;;;;;;4.80;1.70;;;23.50;43.90;;;;;;220253;1269;26449;-58
2022/04/09 12:09:43;;;;;;;3.40;1.20;;;23.50;43.50;;;;;;220340;1265;22558;-57
2022/04/09 12:14:54;;;;;;;4.30;1.40;;;23.50;43.50;;;;;;220508;1268;22708;-56
2022/04/09 12:19:59;;;;;;;8.30;1.30;;;23.40;43.60;;;;;;220728;1265;24364;-58
2022/04/09 12:25:03;;;;;;;4.30;1.70;;;23.30;43.80;;;;;;220498;1265;24285;-58
2022/04/09 12:30:07;;;;;;;7.00;1.30;;;23.30;43.80;;;;;;220634;1266;24339;-56
2022/04/09 12:35:14;;;;;;;6.20;1.40;;;23.50;43.80;;;;;;220328;1265;23222;-56
2022/04/09 12:40:22;;;;;;;5.00;1.50;;;23.20;43.70;;;;;;220617;1265;22541;-58
2022/04/09 12:45:37;;;;;;;8.00;1.60;;;23.20;43.70;;;;;;220420;1265;22532;-59
2022/04/09 12:51:16;;;;;;;5.40;1.80;;;23.20;43.70;;;;;;220534;1267;22751;-57
2022/04/09 12:56:30;;;;;;;4.90;1.50;;;23.20;43.60;;;;;;220405;1268;25515;-59
2022/04/09 13:01:52;;;;;;;8.10;1.70;;;23.20;43.50;;;;;;220373;1266;25313;-62
2022/04/09 13:07:02;;;;;;;3.20;1.30;;;23.20;43.80;;;;;;220495;1268;25188;-63
2022/04/09 13:12:22;;;;;;;3.50;1.50;;;23.30;43.60;;;;;;220141;1269;22537;-58
2022/04/09 13:18:05;;;;;;;6.00;1.80;;;23.20;43.70;;;;;;220516;1265;25090;-61
2022/04/09 13:23:11;;;;;;;;;;;23.20;43.70;;;;;;221101;1265;22510;-59
2022/04/09 13:28:36;;;;;;;11.30;3.80;;;23.10;44.00;;;;;;220111;1265;23907;-61
2022/04/09 13:33:43;;;;;;;9.80;3.20;;;23.10;44.50;;;;;;220287;1268;24429;-56
2022/04/09 13:38:48;;;;;;;12.20;4.10;;;23.10;44.40;;;;;;219973;1267;22778;-62
2022/04/09 13:44:16;;;;;;;40.20;14.90;;;23.20;44.50;;;;;;220162;1267;22710;-63
2022/04/09 13:49:22;;;;;;;24.90;9.20;;;23.20;44.80;;;;;;220435;1265;25232;-63
2022/04/09 13:54:32;;;;;;;26.20;9.30;;;23.20;44.90;;;;;;220338;1265;23753;-62
2022/04/09 13:59:36;;;;;;;38.70;15.80;;;23.30;45.00;;;;;;220267;1266;24276;-61
2022/04/09 14:04:40;;;;;;;37.10;14.70;;;23.20;45.30;;;;;;220539;1265;24297;-65
2022/04/09 14:09:45;;;;;;;29.30;10.90;;;23.30;45.40;;;;;;220167;1265;22541;-62
2022/04/09 14:14:53;;;;;;;26.80;10.80;;;23.30;45.20;;;;;;220375;1265;23132;-62
2022/04/09 14:20:00;;;;;;;28.20;12.90;;;23.30;46.00;;;;;;220529;1265;24083;-61
2022/04/09 14:25:13;;;;;;;30.50;12.40;;;23.30;46.30;;;;;;220647;1265;22601;-60
2022/04/09 14:30:29;;;;;;;32.70;11.90;;;23.30;45.70;;;;;;221075;1265;22624;-60
2022/04/09 14:35:39;;;;;;;29.60;9.90;;;23.30;46.60;;;;;;220503;1265;22725;-59
2022/04/09 14:40:46;;;;;;;27.60;9.70;;;23.20;46.70;;;;;;220514;1265;24361;-58
2022/04/09 14:45:54;;;;;;;25.90;10.60;;;23.20;46.60;;;;;;220454;1265;25646;-62
2022/04/09 14:51:20;;;;;;;25.10;8.50;;;23.30;47.00;;;;;;220221;1265;22574;-61
2022/04/09 14:56:50;;;;;;;23.30;9.20;;;23.30;47.00;;;;;;228126;1265;22394;-61
2022/04/09 15:02:13;;;;;;;31.10;11.40;;;23.30;46.80;;;;;;227911;1265;22452;-62
2022/04/09 15:07:35;;;;;;;;;;;23.30;46.40;;;;;;228191;1264;22442;-61
2022/04/09 15:12:45;;;;;;;24.10;10.20;;;23.30;46.30;;;;;;228008;1265;22161;-59
2022/04/09 15:17:55;;;;;;;26.40;10.00;;;23.30;46.20;;;;;;228124;1265;23188;-60
2022/04/09 15:23:09;;;;;;;35.70;12.60;;;23.30;46.00;;;;;;228183;1265;22360;-59
2022/04/09 15:28:16;;;;;;;24.60;10.60;;;23.30;46.00;;;;;;228066;1264;22553;-60
2022/04/09 15:33:22;;;;;;;33.90;14.40;;;23.30;45.80;;;;;;228076;1264;23279;-60
2022/04/09 15:38:26;;;;;;;35.90;13.20;;;23.30;46.00;;;;;;228028;1264;22581;-61
2022/04/09 15:43:29;;;;;;;33.20;13.60;;;23.30;45.70;;;;;;225732;1266;22538;-64
2022/04/09 15:48:35;;;;;;;38.00;14.10;;;23.20;45.80;;;;;;220227;1265;22655;-66
2022/04/09 15:53:40;;;;;;;28.30;12.60;;;23.20;45.60;;;;;;220354;1265;22676;-59
2022/04/09 15:58:45;;;;;;;24.90;11.80;;;23.20;45.80;;;;;;220840;1265;25316;-64
2022/04/09 16:03:51;;;;;;;35.70;11.60;;;23.10;45.70;;;;;;220673;1265;24130;-63
2022/04/09 16:08:55;;;;;;;42.40;17.00;;;23.10;46.00;;;;;;220733;1265;22540;-63
2022/04/09 16:14:03;;;;;;;35.50;12.70;;;23.00;45.80;;;;;;220623;1265;22617;-63
2022/04/09 16:19:14;;;;;;;29.70;12.00;;;23.00;46.00;;;;;;221052;1265;25447;-63
2022/04/09 16:24:34;;;;;;;32.30;11.40;;;23.10;46.20;;;;;;220524;1265;22627;-58
2022/04/09 16:29:38;;;;;;;29.70;10.90;;;23.10;45.80;;;;;;220486;1265;22627;-58
2022/04/09 16:34:44;;;;;;;39.40;13.10;;;23.00;45.60;;;;;;220642;1264;25399;-58
2022/04/09 16:39:57;;;;;;;28.00;11.60;;;23.00;46.10;;;;;;220599;1265;24195;-59
2022/04/09 16:45:05;;;;;;;30.70;10.70;;;23.00;45.80;;;;;;220487;1265;24006;-57
2022/04/09 16:50:19;;;;;;;27.90;9.30;;;23.00;45.50;;;;;;220244;1265;27475;-58
2022/04/09 16:55:24;;;;;;;25.80;10.00;;;22.90;45.30;;;;;;220745;1265;22559;-57
2022/04/09 17:00:33;;;;;;;27.10;9.00;;;22.90;45.50;;;;;;221347;1265;22533;-57
2022/04/09 17:05:40;;;;;;;23.80;8.50;;;22.90;45.50;;;;;;220498;1265;24412;-56
2022/04/09 17:10:51;;;;;;;24.70;9.70;;;22.80;45.50;;;;;;220578;1265;22537;-58
2022/04/09 17:16:01;;;;;;;23.80;9.00;;;22.80;45.60;;;;;;220797;1265;22537;-54
2022/04/09 17:21:12;;;;;;;24.00;8.50;;;22.70;45.60;;;;;;220850;1265;24402;-60
2022/04/09 17:26:19;;;;;;;24.70;8.60;;;22.70;45.60;;;;;;220582;1265;22568;-58
2022/04/09 17:31:24;;;;;;;20.50;8.10;;;22.60;45.60;;;;;;220765;1265;24225;-57
2022/04/09 17:36:38;;;;;;;26.10;8.00;;;22.60;45.70;;;;;;220779;1265;24582;-58
2022/04/09 17:41:47;;;;;;;25.50;7.90;;;22.70;45.90;;;;;;220427;1265;23999;-57
2022/04/09 17:47:04;;;;;;;28.00;8.30;;;22.70;46.20;;;;;;220898;1265;23953;-56
2022/04/09 17:52:31;;;;;;;27.50;6.90;;;22.70;46.00;;;;;;220620;1265;22537;-56
2022/04/09 17:57:58;;;;;;;29.50;7.80;;;22.60;46.70;;;;;;220635;1265;22531;-58
2022/04/09 18:03:16;;;;;;;21.90;7.30;;;22.60;47.00;;;;;;220645;1265;25300;-58
2022/04/09 18:08:19;;;;;;;21.80;7.30;;;22.60;46.80;;;;;;220659;1265;25364;-54
2022/04/09 18:13:36;;;;;;;20.00;6.90;;;22.60;46.60;;;;;;220419;1265;22563;-56
2022/04/09 18:18:41;;;;;;;16.50;6.30;;;22.50;46.80;;;;;;221085;1265;24305;-55
2022/04/09 18:23:48;;;;;;;22.00;6.80;;;22.50;46.80;;;;;;220808;1265;23907;-54
2022/04/09 18:29:24;;;;;;;18.50;6.30;;;22.50;48.30;;;;;;220615;1265;22572;-58
2022/04/09 18:34:56;;;;;;;27.50;7.20;;;22.60;48.50;;;;;;220508;1265;24289;-56
2022/04/09 18:40:13;;;;;;;20.40;6.10;;;22.50;48.70;;;;;;220617;1265;22622;-57
2022/04/09 18:46:14;;;;;;;21.50;8.10;;;22.50;48.80;;;;;;216538;1265;5389103;-58
2022/04/09 18:51:59;;;;;;;17.70;5.50;;;22.40;48.30;;;;;;220760;1265;25456;-58
2022/04/09 18:57:34;;;;;;;26.40;9.40;;;22.50;47.40;;;;;;220543;1265;25232;-58
2022/04/09 19:03:11;;;;;;;37.80;22.80;;;22.50;47.00;;;;;;220690;1267;22593;-59
2022/04/09 19:08:47;;;;;;;;;;;;;;;;;;;;;
2022/04/09 19:14:11;;;;;;;43.30;28.80;;;22.40;48.20;;;;;;220731;1266;22529;-58
2022/04/09 19:19:28;;;;;;;42.60;27.60;;;22.30;47.60;;;;;;220397;1265;22616;-59
2022/04/09 19:24:59;;;;;;;;;;;;;;;;;;;;;
2022/04/09 19:30:11;;;;;;;33.40;22.80;;;22.30;48.60;;;;;;220708;1265;22531;-54
2022/04/09 19:35:43;;;;;;;37.90;20.80;;;22.30;48.50;;;;;;220487;1265;22563;-55
2022/04/09 19:41:46;;;;;;;32.40;21.30;;;22.40;49.30;;;;;;220960;1265;22550;-54
2022/04/09 19:47:01;;;;;;;33.00;19.00;;;22.40;48.70;;;;;;220717;1265;22616;-57
2022/04/09 19:52:31;;;;;;;32.10;17.60;;;22.40;48.50;;;;;;220637;1265;24400;-61
2022/04/09 19:57:58;;;;;;;27.10;16.00;;;22.40;48.90;;;;;;220574;1265;23066;-61
2022/04/09 20:03:17;;;;;;;30.20;15.40;;;22.30;49.50;;;;;;220493;1265;24431;-57
2022/04/09 20:08:38;;;;;;;24.40;15.40;;;22.20;49.60;;;;;;220387;1265;22528;-59
2022/04/09 20:14:16;;;;;;;;;;;;;;;;;;;;;
2022/04/09 20:19:46;;;;;;;26.20;14.20;;;22.30;51.40;;;;;;220691;1265;22716;-58
2022/04/09 20:25:19;;;;;;;21.60;13.50;;;22.40;51.50;;;;;;220409;1266;24255;-57
2022/04/09 20:30:40;;;;;;;21.80;13.30;;;22.30;51.50;;;;;;220748;1266;25290;-58
2022/04/09 20:35:45;;;;;;;25.10;13.50;;;22.30;52.00;;;;;;220516;1266;24347;-56
2022/04/09 20:40:56;;;;;;;22.60;13.80;;;22.30;51.60;;;;;;220712;1266;24283;-57
2022/04/09 20:46:01;;;;;;;23.90;13.90;;;22.30;51.90;;;;;;220631;1266;22557;-58
2022/04/09 20:51:11;;;;;;;19.40;12.40;;;22.20;51.90;;;;;;220806;1265;22653;-59
2022/04/09 20:56:20;;;;;;;21.00;13.00;;;22.10;52.10;;;;;;220581;1266;22719;-59
2022/04/09 21:01:25;;;;;;;22.10;13.60;;;22.10;51.80;;;;;;220598;1265;24760;-57
2022/04/09 21:06:34;;;;;;;22.60;13.20;;;22.10;51.90;;;;;;220583;1265;22707;-56
2022/04/09 21:11:42;;;;;;;21.20;12.10;;;22.50;51.10;;;;;;220671;1265;22689;-56
2022/04/09 21:16:46;;;;;;;19.50;11.10;;;22.90;50.30;;;;;;220521;1265;22622;-57
2022/04/09 21:21:50;;;;;;;23.20;12.30;;;23.20;49.80;;;;;;220732;1265;25511;-55
2022/04/09 21:26:58;;;;;;;19.90;11.50;;;23.40;49.90;;;;;;220648;1265;22756;-58
2022/04/09 21:32:02;;;;;;;18.40;10.70;;;23.50;49.70;;;;;;220716;1266;23155;-59
2022/04/09 21:37:06;;;;;;;14.10;10.00;;;23.60;49.10;;;;;;221133;1265;25631;-59
2022/04/09 21:42:13;;;;;;;15.90;10.60;;;23.70;48.90;;;;;;220803;1266;22552;-59
2022/04/09 21:47:41;;;;;;;14.80;10.70;;;23.70;48.70;;;;;;220656;1266;22890;-65
2022/04/09 21:52:52;;;;;;;16.20;10.50;;;23.80;48.60;;;;;;220805;1266;24217;-60
2022/04/09 21:58:22;;;;;;;16.60;9.90;;;23.70;48.30;;;;;;220760;1265;24361;-59
2022/04/09 22:03:43;;;;;;;13.50;9.20;;;23.60;48.40;;;;;;220835;1267;23029;-59
2022/04/09 22:08:52;;;;;;;14.10;9.90;;;23.50;48.50;;;;;;220313;1265;22634;-61
2022/04/09 22:14:19;;;;;;;16.00;9.60;;;23.50;48.90;;;;;;220787;1265;25655;-59
2022/04/09 22:19:40;;;;;;;14.10;9.50;;;23.40;49.10;;;;;;220739;1265;22687;-58
2022/04/09 22:24:45;;;;;;;15.80;9.20;;;23.30;49.30;;;;;;220727;1266;25370;-60
2022/04/09 22:29:53;;;;;;;14.70;9.10;;;23.30;49.60;;;;;;220670;1265;22573;-59
2022/04/09 22:34:57;;;;;;;15.40;9.60;;;23.20;49.30;;;;;;221059;1266;24365;-56
2022/04/09 22:40:00;;;;;;;14.40;9.90;;;23.20;49.90;;;;;;220874;1265;22548;-55
2022/04/09 22:45:05;;;;;;;11.60;8.50;;;23.30;49.20;;;;;;220287;1265;24216;-60
2022/04/09 22:50:10;;;;;;;15.40;8.70;;;23.40;48.90;;;;;;220822;1266;23946;-61
2022/04/09 22:55:13;;;;;;;13.70;8.30;;;23.60;48.80;;;;;;220906;1266;22547;-55
2022/04/09 23:00:18;;;;;;;11.40;7.70;;;23.80;48.30;;;;;;220617;1266;25724;-62
2022/04/09 23:05:22;;;;;;;11.90;7.80;;;23.90;48.00;;;;;;220703;1265;23474;-61
2022/04/09 23:10:26;;;;;;;11.80;8.30;;;23.80;48.20;;;;;;220567;1265;24011;-59
2022/04/09 23:15:35;;;;;;;15.20;8.90;;;23.80;48.40;;;;;;220484;1265;24357;-62
2022/04/09 23:21:04;;;;;;;13.60;8.40;;;23.70;48.30;;;;;;220489;1267;24447;-61
2022/04/09 23:26:42;;;;;;;10.90;7.60;;;23.50;48.60;;;;;;220843;1265;24310;-62
2022/04/09 23:32:10;;;;;;;11.10;7.30;;;23.50;49.40;;;;;;220512;1265;22878;-57
2022/04/09 23:37:23;;;;;;;11.50;7.60;;;23.30;49.00;;;;;;220599;1266;23051;-63
2022/04/09 23:42:47;;;;;;;10.60;7.60;;;23.20;49.00;;;;;;220507;1266;24302;-59
2022/04/09 23:48:08;;;;;;;10.10;6.50;;;23.20;49.40;;;;;;220995;1267;22624;-59
2022/04/09 23:53:40;;;;;;;9.30;6.40;;;23.00;49.50;;;;;;220634;1266;24247;-60
2022/04/09 23:58:50;;;;;;;11.20;7.50;;;22.90;49.70;;;;;;220857;1266;25239;-60
